Pagrindinis puslapis
METAR-TAF:

METAR-TAF

Oro uostai :

Manokotak, Aliaska, Jungtinės Amerikos Valstijos

platuma: 58-59-19N, ilguma: 159-02-56W, Aukštis: 16 m

Dabartinis oras

Ataskaita buvo paskelbta 1 valandą ir 12 minutes, ne 15:56 UTC
Vėjas 12 kt iš Šiaurės Rytų
Temperatūra -5°C
Drėgmė 86%
Slėgis 1014 hPa

METAR: PAMB 071556Z AUTO 04012KT M05/M07 A2993 RMK AO2 SLP138 T10501072 PWINO FZRANO $

Laikas: 09:08 (17:08 UTC)


TAF: trūkstamas

Orai ataskaitas ir orų prognozės (METAR, TAF).

turimą stotys yra geltonos ir raudonos taškus žemėlapyje.

Perkelti pele per norėdami pamatyti stoties vardą.

Tada spustelėkite, norėdami matyti oro stebėjimo ir prognozės.

Norėdami pakeisti žemėlapį: spustelėkite ant žalios mygtukų su juodo kryžiaus žemyn,; žalią mygtuką su brūkšneliu, jei norite nutolinti; arba žalių rodyklių gretimoms žemėlapius.


METAR-TAF: